»·PEaware :: N6238A KLAX-KSNA

N6238A :: KLAX-KSNA

FLIGHT INFORMATION

Flight Status: Arrived
Operator: Privately registered:
United States
More flights under this callsign
Pilot: Nicholas J. (33481)
Aircraft: CESSNA 172 SKYHAWK
(C172)
More flights by this aircraft type
Origin: KLAX Los Angeles Intl
United States
Destination: KSNA John Wayne-Orange Co
United States
More flights between these airports :: More routes between these airports
Route: SLI8 SLI
File this flight plan on PilotEdge
Remarks:
Altitude:
(Current/Filed)
4,000ft
Speed:
(Current/Filed)
105kts
Departed: 23-Sep-21 12:31 PM
Arrived: 23-Sep-21 01:12 PM
Distance/Time
Traveled:
31nm/0:40
Distance/Time
To Go:
Arrived

Flight Plot

Page will automatically refresh every two minutes.

Flight plan parsing failed; only flown route is shown


Map Options




Map Legend


Flown Route
Filed Route
Departure Airport
Arrival Airport
Navaid (VOR, NDB)
Fix

Horizontal Profiles

Position Reports

Time Latitude Longitude Heading Altitude Ground
Speed
23-Sep-21 12:13 33.941633 -118.389294 49 120ft 0kts
23-Sep-21 12:14 33.941633 -118.389294 49 120ft 0kts
23-Sep-21 12:15 33.941633 -118.389294 49 120ft 0kts
23-Sep-21 12:16 33.941633 -118.389294 49 120ft 0kts
23-Sep-21 12:17 33.941633 -118.389294 49 120ft 0kts
23-Sep-21 12:18 33.941633 -118.389294 49 120ft 0kts
23-Sep-21 12:19 33.941633 -118.389294 49 120ft 0kts
23-Sep-21 12:20 33.941633 -118.389294 49 120ft 0kts
23-Sep-21 12:21 33.941633 -118.389294 49 120ft 0kts
23-Sep-21 12:22 33.941633 -118.389294 49 120ft 0kts
23-Sep-21 12:23 33.941633 -118.389294 49 120ft 0kts
23-Sep-21 12:24 33.940672 -118.389650 222 120ft 20kts
23-Sep-21 12:25 33.940215 -118.386003 83 120ft 21kts
23-Sep-21 12:26 33.940587 -118.382388 83 120ft 15kts
23-Sep-21 12:27 33.940720 -118.380213 138 120ft 0kts
23-Sep-21 12:28 33.940720 -118.380213 138 120ft 0kts
23-Sep-21 12:29 33.940720 -118.380213 138 120ft 0kts
23-Sep-21 12:30 33.938760 -118.392776 263 374ft 75kts
23-Sep-21 12:31 33.936820 -118.417512 261 1287ft 73kts
23-Sep-21 12:32 33.933473 -118.441650 213 2097ft 75kts
23-Sep-21 12:33 33.910469 -118.441292 162 2734ft 84kts
23-Sep-21 12:34 33.887583 -118.430423 162 3376ft 91kts
23-Sep-21 12:35 33.863237 -118.419769 162 3982ft 98kts
23-Sep-21 12:36 33.832487 -118.407029 164 4021ft 125kts
23-Sep-21 12:37 33.798993 -118.394469 164 4024ft 125kts
23-Sep-21 12:38 33.773493 -118.372226 132 4019ft 114kts
23-Sep-21 12:39 33.751740 -118.343545 132 4020ft 117kts
23-Sep-21 12:40 33.739305 -118.309311 102 4005ft 116kts
23-Sep-21 12:41 33.731013 -118.270628 102 3998ft 120kts
23-Sep-21 12:42 33.730179 -118.232604 66 3978ft 116kts
23-Sep-21 12:43 33.741345 -118.195588 66 3987ft 117kts
23-Sep-21 12:44 33.752429 -118.158572 65 3985ft 118kts
23-Sep-21 12:45 33.763532 -118.121328 65 3987ft 117kts
23-Sep-21 12:46 33.774534 -118.084292 64 3987ft 117kts
23-Sep-21 12:47 33.785879 -118.047281 58 3985ft 116kts
23-Sep-21 12:48 33.800289 -118.012207 61 3984ft 117kts
23-Sep-21 12:49 33.814502 -117.976956 61 3989ft 117kts
23-Sep-21 12:50 33.828792 -117.941497 63 3983ft 117kts
23-Sep-21 12:51 33.842975 -117.906334 64 3988ft 117kts
23-Sep-21 12:52 33.857226 -117.870941 64 3986ft 117kts
23-Sep-21 12:53 33.871420 -117.835688 65 3982ft 117kts
23-Sep-21 12:54 33.885644 -117.800425 64 3987ft 117kts
23-Sep-21 12:55 33.899826 -117.765044 63 3986ft 117kts
23-Sep-21 12:56 33.914338 -117.730276 61 3975ft 115kts
23-Sep-21 12:57 33.934294 -117.702611 29 3988ft 113kts
23-Sep-21 12:58 33.961522 -117.697455 288 3972ft 108kts
23-Sep-21 12:59 33.939256 -117.712515 190 3464ft 94kts
23-Sep-21 13:00 33.915655 -117.717571 203 3469ft 92kts
23-Sep-21 13:01 33.891151 -117.732264 209 3479ft 106kts
23-Sep-21 13:02 33.863907 -117.749495 209 3482ft 113kts
23-Sep-21 13:03 33.836420 -117.766951 210 3411ft 106kts
23-Sep-21 13:04 33.811687 -117.782640 210 2898ft 101kts
23-Sep-21 13:05 33.787607 -117.797984 210 2380ft 96kts
23-Sep-21 13:06 33.763440 -117.813356 209 1855ft 99kts
23-Sep-21 13:07 33.738939 -117.828763 209 1328ft 99kts
23-Sep-21 13:08 33.714682 -117.844166 211 803ft 91kts
23-Sep-21 13:09 33.695201 -117.856470 208 379ft 73kts
23-Sep-21 13:10 33.678823 -117.866919 208 48ft 43kts
23-Sep-21 13:11 33.677983 -117.868899 208 50ft 14kts

Navigation Log

Ident Type
Flight plan parsing failed, navigation log unavailable